Bungo Princess — 3FXV8 — position and weather

sailwx.info

Track history (hours):
 
Tides and Currents Weather Stations Pressure Air Temp Water Temp Dewpoint Dewpoint Depression Visibility Wind Speed Wind Dir Waves Ship Positions

Bungo Princess

Last reported at 2016-Jun-30 08:22 UTC. Time now 2016-Jun-30 10:37 UTC.
Position N 31°58' E 120°24'.

Length 103 m; draft 5.8 m.

Type: Cargo ship. MMSI: 355074054.

Date/timePositionNaut miles runAvg speedWind from/ knotsBaromVisibWave heightAir tempDewpointWater temp
2016-Jun-30 08:22N 31°58' E 120°24'0 0.0
2016-Jun-29 22:28N 31°58' E 120°24'0 0.0
2016-Jun-29 15:22N 31°58' E 120°24'0 0.0
2016-Jun-29 12:10N 31°58' E 120°24'0 0.0
2016-Jun-29 09:28N 31°58' E 120°24'0 0.0
2016-Jun-28 20:16N 31°58' E 120°24'0 0.0
2016-Jun-28 03:10N 31°58' E 120°24'2 0.1
2016-Jun-27 06:33N 31°59' E 120°27'5 5.2
2016-Jun-27 05:30N 32°01' E 120°32'9 9.6
2016-Jun-27 04:32N 32°00' E 120°43'9 8.9
2016-Jun-27 03:31N 31°56' E 120°52'1010.0
2016-Jun-27 02:30N 31°47' E 120°58'9 4.1
2016-Jun-27 00:20N 31°44' E 121°08'0 0.1
2016-Jun-26 23:18N 31°44' E 121°07'0 0.1
2016-Jun-26 22:15N 31°44' E 121°07'0 0.0
2016-Jun-26 17:32N 31°44' E 121°08'0 0.0
2016-Jun-26 14:32N 31°44' E 121°08'0 0.0
2016-Jun-26 13:27N 31°44' E 121°08'1 1.3
2016-Jun-26 12:31N 31°43' E 121°08'9 9.9
2016-Jun-26 11:33N 31°37' E 121°17'1111.0
2016-Jun-26 10:33N 31°29' E 121°26'7 5.9
2016-Jun-26 09:20N 31°24' E 121°32'3 0.1
2016-Jun-25 09:33N 31°21' E 121°30'  
2016-Jun-20 23:33N 35°06' E 139°44'1111.5
2016-Jun-20 22:33N 35°18' E 139°44'8 8.0
2016-Jun-20 21:33N 35°25' E 139°47'6 5.7
2016-Jun-20 20:31N 35°22' E 139°53'0 0.0
2016-Jun-20 19:31N 35°22' E 139°53'0 0.0
2016-Jun-20 18:31N 35°22' E 139°53'0 0.0
2016-Jun-20 17:28N 35°22' E 139°53'0 0.0
2016-Jun-20 16:31N 35°22' E 139°53'0 0.0
2016-Jun-20 15:31N 35°22' E 139°53'0 0.0
2016-Jun-20 14:31N 35°22' E 139°53'0 0.0
2016-Jun-20 13:31N 35°22' E 139°53'0 0.0
2016-Jun-20 12:31N 35°22' E 139°53'0 0.0
2016-Jun-20 11:31N 35°22' E 139°53'0 0.0
2016-Jun-20 10:31N 35°22' E 139°53'0 0.0
2016-Jun-20 09:25N 35°22' E 139°53'0 0.0
2016-Jun-20 08:31N 35°22' E 139°53'  
Track history (hours):
 
Tides and Currents Weather Stations Pressure Air Temp Water Temp Dewpoint Dewpoint Depression Visibility Wind Speed Wind Dir Waves Ship Positions

Bungo Princess

Last reported at 2016-Jun-30 08:22 UTC. Time now 2016-Jun-30 10:37 UTC.
Position N 31°58' E 120°24'.

Length 103 m; draft 5.8 m.

Type: Cargo ship. MMSI: 355074054.

Date/timePositionNaut miles runAvg speedWind from/ knotsBaromVisibWave heightAir tempDewpointWater temp
2016-Jun-30 08:22N 31°58' E 120°24'0 0.0
2016-Jun-29 22:28N 31°58' E 120°24'0 0.0
2016-Jun-29 15:22N 31°58' E 120°24'0 0.0
2016-Jun-29 12:10N 31°58' E 120°24'0 0.0
2016-Jun-29 09:28N 31°58' E 120°24'0 0.0
2016-Jun-28 20:16N 31°58' E 120°24'0 0.0
2016-Jun-28 03:10N 31°58' E 120°24'2 0.1
2016-Jun-27 06:33N 31°59' E 120°27'5 5.2
2016-Jun-27 05:30N 32°01' E 120°32'9 9.6
2016-Jun-27 04:32N 32°00' E 120°43'9 8.9
2016-Jun-27 03:31N 31°56' E 120°52'1010.0
2016-Jun-27 02:30N 31°47' E 120°58'9 4.1
2016-Jun-27 00:20N 31°44' E 121°08'0 0.1
2016-Jun-26 23:18N 31°44' E 121°07'0 0.1
2016-Jun-26 22:15N 31°44' E 121°07'0 0.0
2016-Jun-26 17:32N 31°44' E 121°08'0 0.0
2016-Jun-26 14:32N 31°44' E 121°08'0 0.0
2016-Jun-26 13:27N 31°44' E 121°08'1 1.3
2016-Jun-26 12:31N 31°43' E 121°08'9 9.9
2016-Jun-26 11:33N 31°37' E 121°17'1111.0
2016-Jun-26 10:33N 31°29' E 121°26'7 5.9
2016-Jun-26 09:20N 31°24' E 121°32'3 0.1
2016-Jun-25 09:33N 31°21' E 121°30'  
2016-Jun-20 23:33N 35°06' E 139°44'1111.5
2016-Jun-20 22:33N 35°18' E 139°44'8 8.0
2016-Jun-20 21:33N 35°25' E 139°47'6 5.7
2016-Jun-20 20:31N 35°22' E 139°53'0 0.0
2016-Jun-20 19:31N 35°22' E 139°53'0 0.0
2016-Jun-20 18:31N 35°22' E 139°53'0 0.0
2016-Jun-20 17:28N 35°22' E 139°53'0 0.0
2016-Jun-20 16:31N 35°22' E 139°53'0 0.0
2016-Jun-20 15:31N 35°22' E 139°53'0 0.0
2016-Jun-20 14:31N 35°22' E 139°53'0 0.0
2016-Jun-20 13:31N 35°22' E 139°53'0 0.0
2016-Jun-20 12:31N 35°22' E 139°53'0 0.0
2016-Jun-20 11:31N 35°22' E 139°53'0 0.0
2016-Jun-20 10:31N 35°22' E 139°53'0 0.0
2016-Jun-20 09:25N 35°22' E 139°53'0 0.0
2016-Jun-20 08:31N 35°22' E 139°53'  

Dump ship's entire track history